sensor_id;sensor_type;location;lat;lon;timestamp;pressure;altitude;pressure_sealevel;temperature;humidity
141;BME280;65;48.778;9.160;2023-08-20T00:02:23;98807.97;;;22.97;100.00
141;BME280;65;48.778;9.160;2023-08-20T00:05:11;98807.81;;;22.98;100.00
141;BME280;65;48.778;9.160;2023-08-20T00:07:57;98808.34;;;23.02;100.00
141;BME280;65;48.778;9.160;2023-08-20T00:10:42;98816.94;;;23.06;100.00
141;BME280;65;48.778;9.160;2023-08-20T00:13:28;98819.72;;;23.14;100.00
141;BME280;65;48.778;9.160;2023-08-20T00:16:14;98813.84;;;23.18;100.00
141;BME280;65;48.778;9.160;2023-08-20T00:19:00;98810.97;;;23.20;100.00
141;BME280;65;48.778;9.160;2023-08-20T00:21:46;98814.88;;;23.25;100.00
141;BME280;65;48.778;9.160;2023-08-20T00:24:32;98817.09;;;23.30;100.00
141;BME280;65;48.778;9.160;2023-08-20T00:27:17;98825.84;;;23.32;100.00
141;BME280;65;48.778;9.160;2023-08-20T00:30:03;98815.91;;;23.32;100.00
141;BME280;65;48.778;9.160;2023-08-20T00:32:49;98825.53;;;23.35;100.00
141;BME280;65;48.778;9.160;2023-08-20T00:35:35;98830.41;;;23.31;100.00
141;BME280;65;48.778;9.160;2023-08-20T00:38:21;98820.09;;;23.27;100.00
141;BME280;65;48.778;9.160;2023-08-20T00:41:07;98831.69;;;23.19;100.00
141;BME280;65;48.778;9.160;2023-08-20T00:43:52;98821.56;;;23.13;100.00
141;BME280;65;48.778;9.160;2023-08-20T00:46:38;98826.41;;;23.10;100.00
141;BME280;65;48.778;9.160;2023-08-20T00:49:24;98823.34;;;23.04;100.00
141;BME280;65;48.778;9.160;2023-08-20T00:52:11;98826.69;;;22.98;100.00
141;BME280;65;48.778;9.160;2023-08-20T00:54:58;98824.63;;;22.92;100.00
141;BME280;65;48.778;9.160;2023-08-20T00:57:44;98819.88;;;22.86;100.00
141;BME280;65;48.778;9.160;2023-08-20T01:00:30;98814.47;;;22.86;100.00
141;BME280;65;48.778;9.160;2023-08-20T01:03:15;98817.81;;;22.80;100.00
141;BME280;65;48.778;9.160;2023-08-20T01:06:15;98818.94;;;22.78;100.00
141;BME280;65;48.778;9.160;2023-08-20T01:12:09;98816.34;;;22.68;100.00
141;BME280;65;48.778;9.160;2023-08-20T01:14:56;98821.91;;;22.66;100.00
141;BME280;65;48.778;9.160;2023-08-20T01:17:43;98823.06;;;22.64;100.00
141;BME280;65;48.778;9.160;2023-08-20T01:20:36;98828.47;;;22.64;100.00
141;BME280;65;48.778;9.160;2023-08-20T01:23:56;98835.84;;;22.62;100.00
141;BME280;65;48.778;9.160;2023-08-20T01:27:10;98831.16;;;22.64;100.00
141;BME280;65;48.778;9.160;2023-08-20T01:30:02;98830.47;;;22.62;100.00
141;BME280;65;48.778;9.160;2023-08-20T01:32:50;98833.31;;;22.60;100.00
141;BME280;65;48.778;9.160;2023-08-20T01:35:36;98834.47;;;22.58;100.00
141;BME280;65;48.778;9.160;2023-08-20T01:38:22;98831.22;;;22.54;100.00
141;BME280;65;48.778;9.160;2023-08-20T01:41:08;98839.47;;;22.53;100.00
141;BME280;65;48.778;9.160;2023-08-20T01:43:53;98837.78;;;22.52;100.00
141;BME280;65;48.778;9.160;2023-08-20T01:46:39;98834.91;;;22.53;100.00
141;BME280;65;48.778;9.160;2023-08-20T01:49:25;98837.41;;;22.47;100.00
141;BME280;65;48.778;9.160;2023-08-20T01:52:11;98839.88;;;22.40;100.00
141;BME280;65;48.778;9.160;2023-08-20T01:54:57;98841.34;;;22.34;100.00
141;BME280;65;48.778;9.160;2023-08-20T01:57:44;98836.25;;;22.31;100.00
141;BME280;65;48.778;9.160;2023-08-20T02:00:29;98840.13;;;22.29;100.00
141;BME280;65;48.778;9.160;2023-08-20T02:03:16;98837.72;;;22.26;100.00
141;BME280;65;48.778;9.160;2023-08-20T02:06:01;98844.13;;;22.25;100.00
141;BME280;65;48.778;9.160;2023-08-20T02:08:48;98837.34;;;22.21;100.00
141;BME280;65;48.778;9.160;2023-08-20T02:11:34;98831.44;;;22.17;100.00
141;BME280;65;48.778;9.160;2023-08-20T02:14:21;98838.13;;;22.13;100.00
141;BME280;65;48.778;9.160;2023-08-20T02:17:07;98836.59;;;22.11;100.00
141;BME280;65;48.778;9.160;2023-08-20T02:19:52;98836.59;;;22.11;100.00
141;BME280;65;48.778;9.160;2023-08-20T02:22:38;98850.34;;;22.07;100.00
141;BME280;65;48.778;9.160;2023-08-20T02:25:24;98846.13;;;22.05;100.00
141;BME280;65;48.778;9.160;2023-08-20T02:28:10;98845.13;;;22.06;100.00
141;BME280;65;48.778;9.160;2023-08-20T02:30:56;98841.75;;;22.04;100.00
141;BME280;65;48.778;9.160;2023-08-20T02:33:45;98842.75;;;22.03;100.00
141;BME280;65;48.778;9.160;2023-08-20T02:36:31;98844.16;;;21.97;100.00
141;BME280;65;48.778;9.160;2023-08-20T02:39:16;98839.91;;;21.95;100.00
141;BME280;65;48.778;9.160;2023-08-20T02:42:03;98843.31;;;21.97;100.00
141;BME280;65;48.778;9.160;2023-08-20T02:44:48;98852.50;;;21.94;100.00
141;BME280;65;48.778;9.160;2023-08-20T02:47:34;98852.13;;;21.89;100.00
141;BME280;65;48.778;9.160;2023-08-20T02:50:20;98852.44;;;21.86;100.00
141;BME280;65;48.778;9.160;2023-08-20T02:53:06;98851.91;;;21.83;100.00
141;BME280;65;48.778;9.160;2023-08-20T02:55:51;98853.88;;;21.81;100.00
141;BME280;65;48.778;9.160;2023-08-20T02:58:37;98847.97;;;21.77;100.00
141;BME280;65;48.778;9.160;2023-08-20T03:01:25;98839.34;;;21.73;100.00
141;BME280;65;48.778;9.160;2023-08-20T03:04:11;98832.28;;;21.72;100.00
141;BME280;65;48.778;9.160;2023-08-20T03:06:56;98838.66;;;21.71;100.00
141;BME280;65;48.778;9.160;2023-08-20T03:09:42;98833.44;;;21.70;100.00
141;BME280;65;48.778;9.160;2023-08-20T03:12:28;98834.41;;;21.69;100.00
141;BME280;65;48.778;9.160;2023-08-20T03:15:14;98831.19;;;21.65;100.00
141;BME280;65;48.778;9.160;2023-08-20T03:18:00;98826.41;;;21.59;100.00
141;BME280;65;48.778;9.160;2023-08-20T03:20:46;98821.50;;;21.55;100.00
141;BME280;65;48.778;9.160;2023-08-20T03:23:31;98828.03;;;21.52;100.00
141;BME280;65;48.778;9.160;2023-08-20T03:26:17;98838.78;;;21.52;100.00
141;BME280;65;48.778;9.160;2023-08-20T03:29:03;98833.25;;;21.54;100.00
141;BME280;65;48.778;9.160;2023-08-20T03:31:49;98837.94;;;21.52;100.00
141;BME280;65;48.778;9.160;2023-08-20T03:34:35;98841.63;;;21.51;100.00
141;BME280;65;48.778;9.160;2023-08-20T03:37:21;98842.47;;;21.51;100.00
141;BME280;65;48.778;9.160;2023-08-20T03:40:07;98836.38;;;21.49;100.00
141;BME280;65;48.778;9.160;2023-08-20T03:42:53;98833.16;;;21.45;100.00
141;BME280;65;48.778;9.160;2023-08-20T03:45:39;98828.63;;;21.46;100.00
141;BME280;65;48.778;9.160;2023-08-20T03:48:24;98831.16;;;21.48;100.00
141;BME280;65;48.778;9.160;2023-08-20T03:51:10;98833.31;;;21.44;100.00
141;BME280;65;48.778;9.160;2023-08-20T03:53:56;98832.91;;;21.39;100.00
141;BME280;65;48.778;9.160;2023-08-20T03:56:42;98832.31;;;21.35;100.00
141;BME280;65;48.778;9.160;2023-08-20T03:59:27;98826.25;;;21.33;100.00
141;BME280;65;48.778;9.160;2023-08-20T04:02:14;98826.41;;;21.32;100.00
141;BME280;65;48.778;9.160;2023-08-20T04:05:00;98825.00;;;21.28;100.00
141;BME280;65;48.778;9.160;2023-08-20T04:07:46;98835.06;;;21.26;100.00
141;BME280;65;48.778;9.160;2023-08-20T04:10:32;98842.97;;;21.27;100.00
141;BME280;65;48.778;9.160;2023-08-20T04:13:17;98844.13;;;21.25;100.00
141;BME280;65;48.778;9.160;2023-08-20T04:16:04;98847.81;;;21.24;100.00
141;BME280;65;48.778;9.160;2023-08-20T04:18:50;98845.38;;;21.21;100.00
141;BME280;65;48.778;9.160;2023-08-20T04:21:35;98847.38;;;21.19;100.00
141;BME280;65;48.778;9.160;2023-08-20T04:24:21;98845.13;;;21.24;100.00
141;BME280;65;48.778;9.160;2023-08-20T04:27:07;98836.91;;;21.25;100.00
141;BME280;65;48.778;9.160;2023-08-20T04:29:53;98845.66;;;21.27;100.00
141;BME280;65;48.778;9.160;2023-08-20T04:32:38;98852.03;;;21.26;100.00
141;BME280;65;48.778;9.160;2023-08-20T04:35:24;98846.13;;;21.23;100.00
141;BME280;65;48.778;9.160;2023-08-20T04:38:10;98856.13;;;21.30;100.00
141;BME280;65;48.778;9.160;2023-08-20T04:40:55;98862.22;;;21.32;100.00
141;BME280;65;48.778;9.160;2023-08-20T04:43:41;98858.53;;;21.33;100.00
141;BME280;65;48.778;9.160;2023-08-20T04:46:27;98859.91;;;21.37;100.00
141;BME280;65;48.778;9.160;2023-08-20T04:49:14;98864.31;;;21.38;100.00
141;BME280;65;48.778;9.160;2023-08-20T04:51:59;98873.78;;;21.42;100.00
141;BME280;65;48.778;9.160;2023-08-20T04:54:47;98876.19;;;21.45;100.00
141;BME280;65;48.778;9.160;2023-08-20T04:57:32;98874.34;;;21.46;100.00
141;BME280;65;48.778;9.160;2023-08-20T05:00:18;98873.06;;;21.50;100.00
141;BME280;65;48.778;9.160;2023-08-20T05:03:04;98874.28;;;21.56;100.00
141;BME280;65;48.778;9.160;2023-08-20T05:05:50;98880.06;;;21.61;100.00
141;BME280;65;48.778;9.160;2023-08-20T05:08:36;98878.94;;;21.63;100.00
141;BME280;65;48.778;9.160;2023-08-20T05:11:21;98889.94;;;21.70;100.00
141;BME280;65;48.778;9.160;2023-08-20T05:14:07;98884.78;;;21.76;100.00
141;BME280;65;48.778;9.160;2023-08-20T05:16:53;98870.13;;;21.89;100.00
141;BME280;65;48.778;9.160;2023-08-20T05:19:38;98847.81;;;22.06;100.00
141;BME280;65;48.778;9.160;2023-08-20T05:22:24;98844.97;;;22.25;100.00
141;BME280;65;48.778;9.160;2023-08-20T05:25:10;98830.03;;;22.31;100.00
141;BME280;65;48.778;9.160;2023-08-20T05:27:56;98852.34;;;22.41;100.00
141;BME280;65;48.778;9.160;2023-08-20T05:30:41;98871.94;;;22.51;100.00
141;BME280;65;48.778;9.160;2023-08-20T05:33:27;98887.06;;;22.62;100.00
141;BME280;65;48.778;9.160;2023-08-20T05:36:14;98881.34;;;22.65;100.00
141;BME280;65;48.778;9.160;2023-08-20T05:38:59;98875.88;;;22.75;100.00
141;BME280;65;48.778;9.160;2023-08-20T05:41:45;98886.78;;;22.91;100.00
141;BME280;65;48.778;9.160;2023-08-20T05:47:16;98889.13;;;22.86;100.00
141;BME280;65;48.778;9.160;2023-08-20T05:50:02;98892.19;;;22.91;100.00
141;BME280;65;48.778;9.160;2023-08-20T05:52:48;98901.50;;;22.96;100.00
141;BME280;65;48.778;9.160;2023-08-20T05:55:34;98901.81;;;22.93;100.00
141;BME280;65;48.778;9.160;2023-08-20T05:58:20;98894.44;;;23.03;100.00
141;BME280;65;48.778;9.160;2023-08-20T06:01:05;98891.03;;;23.19;100.00
141;BME280;65;48.778;9.160;2023-08-20T06:03:51;98895.34;;;23.38;100.00
141;BME280;65;48.778;9.160;2023-08-20T06:06:37;98892.78;;;23.62;100.00
141;BME280;65;48.778;9.160;2023-08-20T06:09:23;98900.50;;;23.83;100.00
141;BME280;65;48.778;9.160;2023-08-20T06:12:08;98899.72;;;24.15;100.00
141;BME280;65;48.778;9.160;2023-08-20T06:14:54;98899.66;;;24.41;100.00
141;BME280;65;48.778;9.160;2023-08-20T06:17:40;98903.88;;;24.68;100.00
141;BME280;65;48.778;9.160;2023-08-20T06:20:26;98896.59;;;24.85;100.00
141;BME280;65;48.778;9.160;2023-08-20T06:23:11;98902.84;;;25.26;100.00
141;BME280;65;48.778;9.160;2023-08-20T06:25:58;98898.09;;;25.36;98.90
141;BME280;65;48.778;9.160;2023-08-20T06:28:44;98908.19;;;25.59;97.50
141;BME280;65;48.778;9.160;2023-08-20T06:31:30;98908.19;;;25.67;98.05
141;BME280;65;48.778;9.160;2023-08-20T06:34:15;98912.69;;;25.82;99.89
141;BME280;65;48.778;9.160;2023-08-20T06:37:01;98901.72;;;25.76;100.00
141;BME280;65;48.778;9.160;2023-08-20T06:39:47;98901.72;;;25.76;96.34
141;BME280;65;48.778;9.160;2023-08-20T06:42:33;98906.50;;;25.66;99.11
141;BME280;65;48.778;9.160;2023-08-20T06:45:19;98914.63;;;25.66;97.63
141;BME280;65;48.778;9.160;2023-08-20T06:48:05;98913.75;;;25.65;98.63
141;BME280;65;48.778;9.160;2023-08-20T06:50:51;98902.34;;;25.86;96.87
141;BME280;65;48.778;9.160;2023-08-20T06:53:36;98900.75;;;26.31;98.57
141;BME280;65;48.778;9.160;2023-08-20T06:56:22;98915.63;;;26.66;92.33
141;BME280;65;48.778;9.160;2023-08-20T06:59:08;98909.03;;;27.06;90.86
141;BME280;65;48.778;9.160;2023-08-20T07:01:54;98915.16;;;27.23;90.07
141;BME280;65;48.778;9.160;2023-08-20T07:04:39;98911.97;;;27.19;89.13
141;BME280;65;48.778;9.160;2023-08-20T07:07:25;98912.31;;;27.16;86.15
141;BME280;65;48.778;9.160;2023-08-20T07:10:11;98913.94;;;27.25;87.96
141;BME280;65;48.778;9.160;2023-08-20T07:12:57;98926.13;;;27.44;87.46
141;BME280;65;48.778;9.160;2023-08-20T07:15:43;98928.31;;;27.78;82.40
141;BME280;65;48.778;9.160;2023-08-20T07:18:29;98917.34;;;27.86;84.45
141;BME280;65;48.778;9.160;2023-08-20T07:21:15;98916.25;;;28.31;79.99
141;BME280;65;48.778;9.160;2023-08-20T07:24:01;98918.94;;;29.10;76.26
141;BME280;65;48.778;9.160;2023-08-20T07:26:46;98920.84;;;31.14;64.52
141;BME280;65;48.778;9.160;2023-08-20T07:29:32;98927.59;;;32.67;58.27
141;BME280;65;48.778;9.160;2023-08-20T07:32:18;98924.47;;;33.70;54.70
141;BME280;65;48.778;9.160;2023-08-20T07:35:04;98931.63;;;34.44;52.08
141;BME280;65;48.778;9.160;2023-08-20T07:37:50;98937.66;;;35.59;49.24
141;BME280;65;48.778;9.160;2023-08-20T07:40:36;98946.56;;;34.48;51.20
141;BME280;65;48.778;9.160;2023-08-20T07:43:21;98944.66;;;33.32;54.56
141;BME280;65;48.778;9.160;2023-08-20T07:46:08;98942.00;;;32.56;58.77
141;BME280;65;48.778;9.160;2023-08-20T07:48:54;98943.44;;;33.46;54.26
141;BME280;65;48.778;9.160;2023-08-20T07:51:40;98938.97;;;33.95;55.44
141;BME280;65;48.778;9.160;2023-08-20T07:54:25;98943.44;;;35.04;49.98
141;BME280;65;48.778;9.160;2023-08-20T07:57:14;98943.69;;;35.26;48.66
141;BME280;65;48.778;9.160;2023-08-20T07:59:59;98940.47;;;35.17;48.34
141;BME280;65;48.778;9.160;2023-08-20T08:02:45;98944.47;;;34.92;48.31
141;BME280;65;48.778;9.160;2023-08-20T08:05:31;98949.00;;;35.74;47.20
141;BME280;65;48.778;9.160;2023-08-20T08:08:18;98940.22;;;37.10;42.79
141;BME280;65;48.778;9.160;2023-08-20T08:11:04;98945.56;;;37.50;41.59
141;BME280;65;48.778;9.160;2023-08-20T08:13:50;98955.50;;;38.06;41.02
141;BME280;65;48.778;9.160;2023-08-20T08:16:35;98942.44;;;36.96;42.36
141;BME280;65;48.778;9.160;2023-08-20T08:19:21;98957.50;;;35.61;45.44
141;BME280;65;48.778;9.160;2023-08-20T08:22:07;98960.81;;;35.28;46.25
141;BME280;65;48.778;9.160;2023-08-20T08:24:52;98960.00;;;34.38;48.53
141;BME280;65;48.778;9.160;2023-08-20T08:27:38;98960.13;;;36.55;43.41
141;BME280;65;48.778;9.160;2023-08-20T08:30:24;98960.09;;;36.15;44.75
141;BME280;65;48.778;9.160;2023-08-20T08:33:10;98960.22;;;36.08;43.01
141;BME280;65;48.778;9.160;2023-08-20T08:35:55;98956.38;;;36.89;41.87
141;BME280;65;48.778;9.160;2023-08-20T08:38:41;98957.44;;;37.67;40.95
141;BME280;65;48.778;9.160;2023-08-20T08:41:28;98954.47;;;38.29;39.85
141;BME280;65;48.778;9.160;2023-08-20T08:44:14;98955.25;;;39.00;36.51
141;BME280;65;48.778;9.160;2023-08-20T08:47:07;98946.09;;;38.95;36.55
141;BME280;65;48.778;9.160;2023-08-20T08:49:55;98953.09;;;37.71;39.24
141;BME280;65;48.778;9.160;2023-08-20T08:52:42;98954.94;;;39.23;36.29
141;BME280;65;48.778;9.160;2023-08-20T08:55:28;98952.94;;;37.61;40.35
141;BME280;65;48.778;9.160;2023-08-20T08:58:14;98955.38;;;39.42;36.59
141;BME280;65;48.778;9.160;2023-08-20T09:01:00;98946.81;;;39.12;36.05
141;BME280;65;48.778;9.160;2023-08-20T09:03:47;98955.63;;;39.41;35.58
141;BME280;65;48.778;9.160;2023-08-20T09:06:51;98952.19;;;38.70;38.55
141;BME280;65;48.778;9.160;2023-08-20T09:09:36;98953.47;;;39.16;37.43
141;BME280;65;48.778;9.160;2023-08-20T09:12:23;98949.25;;;41.28;32.57
141;BME280;65;48.778;9.160;2023-08-20T09:15:12;98952.56;;;41.71;31.55
141;BME280;65;48.778;9.160;2023-08-20T09:18:01;98960.34;;;41.38;34.29
141;BME280;65;48.778;9.160;2023-08-20T09:20:49;98963.69;;;41.25;32.15
141;BME280;65;48.778;9.160;2023-08-20T09:23:36;98961.50;;;40.39;33.82
141;BME280;65;48.778;9.160;2023-08-20T09:26:22;98959.66;;;40.65;35.18
141;BME280;65;48.778;9.160;2023-08-20T09:29:08;98956.88;;;42.17;29.96
141;BME280;65;48.778;9.160;2023-08-20T09:32:03;98961.63;;;40.69;32.90
141;BME280;65;48.778;9.160;2023-08-20T09:34:50;98954.22;;;41.05;31.99
141;BME280;65;48.778;9.160;2023-08-20T09:37:36;98943.69;;;41.18;31.92
141;BME280;65;48.778;9.160;2023-08-20T09:40:22;98947.59;;;40.24;35.31
141;BME280;65;48.778;9.160;2023-08-20T09:43:09;98942.81;;;41.88;30.66
141;BME280;65;48.778;9.160;2023-08-20T09:46:00;98952.19;;;42.13;30.52
141;BME280;65;48.778;9.160;2023-08-20T09:48:48;98953.88;;;42.09;30.25
141;BME280;65;48.778;9.160;2023-08-20T09:51:36;98958.88;;;42.71;29.03
141;BME280;65;48.778;9.160;2023-08-20T09:54:34;98952.00;;;41.48;30.49
141;BME280;65;48.778;9.160;2023-08-20T10:00:11;98942.38;;;42.36;29.41
141;BME280;65;48.778;9.160;2023-08-20T10:02:58;98937.34;;;42.38;28.74
141;BME280;65;48.778;9.160;2023-08-20T10:05:46;98941.34;;;42.21;28.93
141;BME280;65;48.778;9.160;2023-08-20T10:08:33;98934.97;;;42.00;30.12
141;BME280;65;48.778;9.160;2023-08-20T10:11:19;98939.25;;;42.52;28.59
141;BME280;65;48.778;9.160;2023-08-20T10:14:04;98937.50;;;40.75;30.85
141;BME280;65;48.778;9.160;2023-08-20T10:16:51;98923.97;;;41.14;31.09
141;BME280;65;48.778;9.160;2023-08-20T10:19:38;98938.13;;;41.79;29.99
141;BME280;65;48.778;9.160;2023-08-20T10:22:35;98933.41;;;41.38;30.36
141;BME280;65;48.778;9.160;2023-08-20T10:25:24;98924.91;;;42.25;29.79
141;BME280;65;48.778;9.160;2023-08-20T10:31:07;98928.47;;;42.36;29.29
141;BME280;65;48.778;9.160;2023-08-20T10:33:57;98926.88;;;42.14;28.64
141;BME280;65;48.778;9.160;2023-08-20T10:36:43;98923.97;;;41.70;28.63
141;BME280;65;48.778;9.160;2023-08-20T10:39:30;98926.31;;;42.17;28.89
141;BME280;65;48.778;9.160;2023-08-20T10:42:26;98924.88;;;42.30;28.69
141;BME280;65;48.778;9.160;2023-08-20T10:45:12;98929.53;;;42.45;29.61
141;BME280;65;48.778;9.160;2023-08-20T10:47:57;98929.66;;;43.76;27.48
141;BME280;65;48.778;9.160;2023-08-20T10:50:43;98925.31;;;43.65;27.44
141;BME280;65;48.778;9.160;2023-08-20T10:53:31;98930.19;;;44.68;24.70
141;BME280;65;48.778;9.160;2023-08-20T10:56:17;98938.94;;;44.81;24.48
141;BME280;65;48.778;9.160;2023-08-20T10:59:29;98927.03;;;45.13;24.53
141;BME280;65;48.778;9.160;2023-08-20T11:02:16;98922.47;;;43.94;26.00
141;BME280;65;48.778;9.160;2023-08-20T11:05:03;98923.72;;;44.73;25.84
141;BME280;65;48.778;9.160;2023-08-20T11:07:50;98925.81;;;45.19;23.49
141;BME280;65;48.778;9.160;2023-08-20T11:10:36;98912.41;;;44.64;24.02
141;BME280;65;48.778;9.160;2023-08-20T11:13:22;98902.03;;;43.79;25.17
141;BME280;65;48.778;9.160;2023-08-20T11:16:07;98903.44;;;43.19;25.62
141;BME280;65;48.778;9.160;2023-08-20T11:18:53;98906.16;;;42.51;26.56
141;BME280;65;48.778;9.160;2023-08-20T11:21:40;98910.41;;;42.77;27.13
141;BME280;65;48.778;9.160;2023-08-20T11:24:29;98901.34;;;43.69;25.16
141;BME280;65;48.778;9.160;2023-08-20T11:27:15;98902.84;;;43.22;28.02
141;BME280;65;48.778;9.160;2023-08-20T11:30:03;98905.16;;;42.31;27.72
141;BME280;65;48.778;9.160;2023-08-20T11:32:49;98902.13;;;43.45;25.86
141;BME280;65;48.778;9.160;2023-08-20T11:35:38;98904.94;;;43.93;25.73
141;BME280;65;48.778;9.160;2023-08-20T11:38:24;98905.84;;;44.74;24.29
141;BME280;65;48.778;9.160;2023-08-20T11:41:10;98907.59;;;44.89;23.08
141;BME280;65;48.778;9.160;2023-08-20T11:43:56;98895.94;;;44.44;23.52
141;BME280;65;48.778;9.160;2023-08-20T11:46:43;98898.75;;;42.75;27.85
141;BME280;65;48.778;9.160;2023-08-20T11:49:29;98902.66;;;43.13;26.27
141;BME280;65;48.778;9.160;2023-08-20T11:52:18;98899.97;;;43.03;26.55
141;BME280;65;48.778;9.160;2023-08-20T11:55:04;98900.03;;;43.85;25.11
141;BME280;65;48.778;9.160;2023-08-20T11:57:53;98896.97;;;44.53;24.41
141;BME280;65;48.778;9.160;2023-08-20T12:00:39;98893.69;;;44.46;24.15
141;BME280;65;48.778;9.160;2023-08-20T12:03:29;98890.41;;;42.80;29.17
141;BME280;65;48.778;9.160;2023-08-20T12:06:21;98889.44;;;43.58;25.92
141;BME280;65;48.778;9.160;2023-08-20T12:09:21;98887.28;;;43.21;26.08
141;BME280;65;48.778;9.160;2023-08-20T12:12:08;98876.22;;;43.45;25.22
141;BME280;65;48.778;9.160;2023-08-20T12:14:54;98876.13;;;43.55;25.10
141;BME280;65;48.778;9.160;2023-08-20T12:17:40;98873.66;;;41.82;28.56
141;BME280;65;48.778;9.160;2023-08-20T12:20:27;98872.94;;;41.30;27.87
141;BME280;65;48.778;9.160;2023-08-20T12:23:14;98870.34;;;41.80;27.50
141;BME280;65;48.778;9.160;2023-08-20T12:26:00;98868.59;;;42.04;28.03
141;BME280;65;48.778;9.160;2023-08-20T12:28:46;98869.38;;;42.64;26.24
141;BME280;65;48.778;9.160;2023-08-20T12:31:32;98869.31;;;41.04;27.32
141;BME280;65;48.778;9.160;2023-08-20T12:34:18;98862.94;;;40.84;29.27
141;BME280;65;48.778;9.160;2023-08-20T12:37:04;98866.00;;;40.82;28.74
141;BME280;65;48.778;9.160;2023-08-20T12:39:49;98867.75;;;40.05;30.51
141;BME280;65;48.778;9.160;2023-08-20T12:42:38;98854.53;;;41.60;27.50
141;BME280;65;48.778;9.160;2023-08-20T12:45:24;98858.75;;;40.71;29.95
141;BME280;65;48.778;9.160;2023-08-20T12:48:09;98863.38;;;40.30;29.61
141;BME280;65;48.778;9.160;2023-08-20T12:50:56;98863.06;;;40.21;29.66
141;BME280;65;48.778;9.160;2023-08-20T12:53:42;98856.97;;;40.19;30.63
141;BME280;65;48.778;9.160;2023-08-20T12:56:28;98848.59;;;39.94;29.87
141;BME280;65;48.778;9.160;2023-08-20T12:59:13;98839.06;;;39.79;29.27
141;BME280;65;48.778;9.160;2023-08-20T13:01:59;98844.50;;;39.54;30.44
141;BME280;65;48.778;9.160;2023-08-20T13:04:46;98845.75;;;39.89;29.59
141;BME280;65;48.778;9.160;2023-08-20T13:07:32;98841.72;;;39.49;32.26
141;BME280;65;48.778;9.160;2023-08-20T13:10:18;98841.22;;;39.20;34.01
141;BME280;65;48.778;9.160;2023-08-20T13:13:05;98835.13;;;39.18;31.83
141;BME280;65;48.778;9.160;2023-08-20T13:15:53;98834.44;;;39.38;30.82
141;BME280;65;48.778;9.160;2023-08-20T13:18:39;98835.94;;;39.18;31.27
141;BME280;65;48.778;9.160;2023-08-20T13:21:25;98838.34;;;39.05;33.56
141;BME280;65;48.778;9.160;2023-08-20T13:24:10;98836.72;;;39.09;30.94
141;BME280;65;48.778;9.160;2023-08-20T13:26:56;98828.28;;;38.94;31.10
141;BME280;65;48.778;9.160;2023-08-20T13:29:42;98823.34;;;38.37;32.44
141;BME280;65;48.778;9.160;2023-08-20T13:32:28;98818.16;;;38.72;31.37
141;BME280;65;48.778;9.160;2023-08-20T13:35:13;98816.44;;;38.66;31.10
141;BME280;65;48.778;9.160;2023-08-20T13:38:00;98824.31;;;38.04;32.68
141;BME280;65;48.778;9.160;2023-08-20T13:40:45;98820.31;;;37.51;33.55
141;BME280;65;48.778;9.160;2023-08-20T13:43:31;98821.47;;;37.16;35.86
141;BME280;65;48.778;9.160;2023-08-20T13:46:17;98822.19;;;37.45;35.77
141;BME280;65;48.778;9.160;2023-08-20T13:49:04;98816.34;;;37.80;35.85
141;BME280;65;48.778;9.160;2023-08-20T13:51:49;98814.22;;;38.36;33.02
141;BME280;65;48.778;9.160;2023-08-20T13:54:35;98812.94;;;38.17;32.94
141;BME280;65;48.778;9.160;2023-08-20T13:57:21;98808.31;;;37.79;34.53
141;BME280;65;48.778;9.160;2023-08-20T14:00:07;98809.34;;;37.56;35.15
141;BME280;65;48.778;9.160;2023-08-20T14:02:57;98806.63;;;38.21;33.96
141;BME280;65;48.778;9.160;2023-08-20T14:06:07;98811.72;;;38.13;34.65
141;BME280;65;48.778;9.160;2023-08-20T14:08:58;98815.31;;;38.35;33.69
141;BME280;65;48.778;9.160;2023-08-20T14:15:26;98798.06;;;38.23;34.16
141;BME280;65;48.778;9.160;2023-08-20T14:18:12;98804.47;;;38.07;35.32
141;BME280;65;48.778;9.160;2023-08-20T14:20:58;98801.97;;;37.78;35.82
141;BME280;65;48.778;9.160;2023-08-20T14:23:43;98800.22;;;37.72;34.95
141;BME280;65;48.778;9.160;2023-08-20T14:26:29;98791.97;;;37.55;36.36
141;BME280;65;48.778;9.160;2023-08-20T14:29:15;98795.19;;;37.47;35.00
141;BME280;65;48.778;9.160;2023-08-20T14:32:01;98795.19;;;36.92;35.37
141;BME280;65;48.778;9.160;2023-08-20T14:34:46;98797.78;;;35.79;38.06
141;BME280;65;48.778;9.160;2023-08-20T14:37:32;98797.28;;;35.31;38.65
141;BME280;65;48.778;9.160;2023-08-20T14:40:18;98793.59;;;34.90;42.01
141;BME280;65;48.778;9.160;2023-08-20T14:43:04;98803.03;;;34.94;42.13
141;BME280;65;48.778;9.160;2023-08-20T14:45:49;98802.06;;;35.12;38.82
141;BME280;65;48.778;9.160;2023-08-20T14:48:35;98795.56;;;34.48;42.14
141;BME280;65;48.778;9.160;2023-08-20T14:51:26;98784.00;;;34.16;41.93
141;BME280;65;48.778;9.160;2023-08-20T14:54:11;98795.69;;;33.93;42.44
141;BME280;65;48.778;9.160;2023-08-20T14:56:57;98792.81;;;33.88;41.49
141;BME280;65;48.778;9.160;2023-08-20T14:59:43;98799.53;;;33.74;42.00
141;BME280;65;48.778;9.160;2023-08-20T15:02:29;98798.00;;;33.41;44.35
141;BME280;65;48.778;9.160;2023-08-20T15:05:14;98792.88;;;33.26;42.23
141;BME280;65;48.778;9.160;2023-08-20T15:08:00;98794.19;;;33.24;46.77
141;BME280;65;48.778;9.160;2023-08-20T15:11:04;98790.75;;;33.28;43.85
141;BME280;65;48.778;9.160;2023-08-20T15:13:49;98791.63;;;33.66;43.54
141;BME280;65;48.778;9.160;2023-08-20T15:16:37;98789.53;;;33.98;44.04
141;BME280;65;48.778;9.160;2023-08-20T15:19:22;98788.94;;;34.07;43.31
141;BME280;65;48.778;9.160;2023-08-20T15:22:08;98788.47;;;34.10;42.17
141;BME280;65;48.778;9.160;2023-08-20T15:24:54;98789.06;;;34.01;42.32
141;BME280;65;48.778;9.160;2023-08-20T15:27:40;98792.50;;;33.78;43.57
141;BME280;65;48.778;9.160;2023-08-20T15:30:26;98789.56;;;33.61;42.05
141;BME280;65;48.778;9.160;2023-08-20T15:33:12;98791.09;;;33.57;40.94
141;BME280;65;48.778;9.160;2023-08-20T15:35:59;98797.69;;;33.13;42.11
141;BME280;65;48.778;9.160;2023-08-20T15:38:45;98802.56;;;33.11;43.88
141;BME280;65;48.778;9.160;2023-08-20T15:41:31;98795.16;;;33.11;42.31
141;BME280;65;48.778;9.160;2023-08-20T15:44:16;98797.38;;;33.03;44.62
141;BME280;65;48.778;9.160;2023-08-20T15:47:02;98795.28;;;32.73;44.29
141;BME280;65;48.778;9.160;2023-08-20T15:50:00;98794.44;;;32.72;45.89
141;BME280;65;48.778;9.160;2023-08-20T15:52:46;98788.81;;;32.67;44.39
141;BME280;65;48.778;9.160;2023-08-20T15:55:33;98796.78;;;32.69;44.93
141;BME280;65;48.778;9.160;2023-08-20T15:58:19;98790.84;;;32.79;46.27